sensor_id;sensor_type;location;lat;lon;timestamp;P1;durP1;ratioP1;P2;durP2;ratioP2
75437;SDS011;64015;49.392;15.582;2024-03-17T00:01:05;7.50;;;2.40;;
75437;SDS011;64015;49.392;15.582;2024-03-17T00:03:51;5.18;;;2.25;;
75437;SDS011;64015;49.392;15.582;2024-03-17T00:06:17;6.60;;;2.65;;
75437;SDS011;64015;49.392;15.582;2024-03-17T00:08:43;5.65;;;1.95;;
75437;SDS011;64015;49.392;15.582;2024-03-17T00:11:09;5.40;;;2.47;;
75437;SDS011;64015;49.392;15.582;2024-03-17T00:13:34;4.55;;;2.05;;
75437;SDS011;64015;49.392;15.582;2024-03-17T00:16:01;3.58;;;1.83;;
75437;SDS011;64015;49.392;15.582;2024-03-17T00:18:26;4.45;;;1.95;;
75437;SDS011;64015;49.392;15.582;2024-03-17T00:20:53;5.00;;;1.95;;
75437;SDS011;64015;49.392;15.582;2024-03-17T00:23:19;7.05;;;1.88;;
75437;SDS011;64015;49.392;15.582;2024-03-17T00:25:45;6.07;;;1.75;;
75437;SDS011;64015;49.392;15.582;2024-03-17T00:28:11;4.85;;;2.05;;
75437;SDS011;64015;49.392;15.582;2024-03-17T00:30:37;5.63;;;1.73;;
75437;SDS011;64015;49.392;15.582;2024-03-17T00:33:03;5.22;;;2.03;;
75437;SDS011;64015;49.392;15.582;2024-03-17T00:35:29;5.65;;;1.95;;
75437;SDS011;64015;49.392;15.582;2024-03-17T00:37:55;6.80;;;2.35;;
75437;SDS011;64015;49.392;15.582;2024-03-17T00:40:21;2.97;;;1.45;;
75437;SDS011;64015;49.392;15.582;2024-03-17T00:42:47;4.63;;;1.77;;
75437;SDS011;64015;49.392;15.582;2024-03-17T00:45:13;4.97;;;2.03;;
75437;SDS011;64015;49.392;15.582;2024-03-17T00:47:39;9.27;;;2.83;;
75437;SDS011;64015;49.392;15.582;2024-03-17T00:50:05;5.32;;;2.20;;
75437;SDS011;64015;49.392;15.582;2024-03-17T00:52:34;4.20;;;1.80;;
75437;SDS011;64015;49.392;15.582;2024-03-17T00:55:00;5.45;;;2.30;;
75437;SDS011;64015;49.392;15.582;2024-03-17T00:57:26;4.20;;;1.77;;
75437;SDS011;64015;49.392;15.582;2024-03-17T00:59:51;3.72;;;1.77;;
75437;SDS011;64015;49.392;15.582;2024-03-17T01:02:18;8.70;;;2.08;;
75437;SDS011;64015;49.392;15.582;2024-03-17T01:04:44;4.53;;;2.08;;
75437;SDS011;64015;49.392;15.582;2024-03-17T01:07:10;5.10;;;2.05;;
75437;SDS011;64015;49.392;15.582;2024-03-17T01:09:37;4.38;;;2.20;;
75437;SDS011;64015;49.392;15.582;2024-03-17T01:12:03;4.57;;;1.95;;
75437;SDS011;64015;49.392;15.582;2024-03-17T01:14:31;8.15;;;2.10;;
75437;SDS011;64015;49.392;15.582;2024-03-17T01:16:57;8.23;;;2.40;;
75437;SDS011;64015;49.392;15.582;2024-03-17T01:19:23;5.57;;;2.42;;
75437;SDS011;64015;49.392;15.582;2024-03-17T01:21:51;6.10;;;2.22;;
75437;SDS011;64015;49.392;15.582;2024-03-17T01:24:17;4.55;;;2.42;;
75437;SDS011;64015;49.392;15.582;2024-03-17T01:26:43;5.85;;;2.55;;
75437;SDS011;64015;49.392;15.582;2024-03-17T01:29:09;6.00;;;2.83;;
75437;SDS011;64015;49.392;15.582;2024-03-17T01:31:34;7.47;;;2.40;;
75437;SDS011;64015;49.392;15.582;2024-03-17T01:34:00;6.70;;;2.42;;
75437;SDS011;64015;49.392;15.582;2024-03-17T01:36:26;6.80;;;2.47;;
75437;SDS011;64015;49.392;15.582;2024-03-17T01:38:52;7.93;;;3.00;;
75437;SDS011;64015;49.392;15.582;2024-03-17T01:41:18;8.82;;;2.80;;
75437;SDS011;64015;49.392;15.582;2024-03-17T01:43:45;7.50;;;2.63;;
75437;SDS011;64015;49.392;15.582;2024-03-17T01:46:14;8.93;;;3.13;;
75437;SDS011;64015;49.392;15.582;2024-03-17T01:48:42;5.53;;;2.40;;
75437;SDS011;64015;49.392;15.582;2024-03-17T01:51:10;7.32;;;3.10;;
75437;SDS011;64015;49.392;15.582;2024-03-17T01:56:04;10.43;;;3.25;;
75437;SDS011;64015;49.392;15.582;2024-03-17T01:58:31;7.93;;;2.55;;
75437;SDS011;64015;49.392;15.582;2024-03-17T02:00:57;6.05;;;2.75;;
75437;SDS011;64015;49.392;15.582;2024-03-17T02:03:24;8.65;;;3.63;;
75437;SDS011;64015;49.392;15.582;2024-03-17T02:05:49;7.03;;;2.70;;
75437;SDS011;64015;49.392;15.582;2024-03-17T02:08:15;10.15;;;4.13;;
75437;SDS011;64015;49.392;15.582;2024-03-17T02:10:41;10.05;;;3.35;;
75437;SDS011;64015;49.392;15.582;2024-03-17T02:13:07;9.10;;;3.60;;
75437;SDS011;64015;49.392;15.582;2024-03-17T02:15:35;12.77;;;3.67;;
75437;SDS011;64015;49.392;15.582;2024-03-17T02:18:06;8.80;;;3.80;;
75437;SDS011;64015;49.392;15.582;2024-03-17T02:20:32;8.93;;;3.58;;
75437;SDS011;64015;49.392;15.582;2024-03-17T02:23:16;9.32;;;3.75;;
75437;SDS011;64015;49.392;15.582;2024-03-17T02:25:43;11.80;;;3.70;;
75437;SDS011;64015;49.392;15.582;2024-03-17T02:30:42;9.13;;;3.30;;
75437;SDS011;64015;49.392;15.582;2024-03-17T02:33:11;7.55;;;4.07;;
75437;SDS011;64015;49.392;15.582;2024-03-17T02:35:36;10.60;;;3.10;;
75437;SDS011;64015;49.392;15.582;2024-03-17T02:38:02;9.38;;;3.85;;
75437;SDS011;64015;49.392;15.582;2024-03-17T02:40:28;9.25;;;3.15;;
75437;SDS011;64015;49.392;15.582;2024-03-17T02:42:54;10.73;;;4.10;;
75437;SDS011;64015;49.392;15.582;2024-03-17T02:45:20;7.70;;;3.65;;
75437;SDS011;64015;49.392;15.582;2024-03-17T02:47:46;7.30;;;3.17;;
75437;SDS011;64015;49.392;15.582;2024-03-17T02:50:12;10.55;;;4.00;;
75437;SDS011;64015;49.392;15.582;2024-03-17T02:52:38;7.85;;;3.38;;
75437;SDS011;64015;49.392;15.582;2024-03-17T02:55:04;11.57;;;4.13;;
75437;SDS011;64015;49.392;15.582;2024-03-17T02:57:31;10.05;;;3.85;;
75437;SDS011;64015;49.392;15.582;2024-03-17T02:59:57;7.05;;;3.80;;
75437;SDS011;64015;49.392;15.582;2024-03-17T03:02:24;10.23;;;3.78;;
75437;SDS011;64015;49.392;15.582;2024-03-17T03:04:49;10.32;;;4.10;;
75437;SDS011;64015;49.392;15.582;2024-03-17T03:07:16;9.00;;;4.07;;
75437;SDS011;64015;49.392;15.582;2024-03-17T03:09:42;8.70;;;4.68;;
75437;SDS011;64015;49.392;15.582;2024-03-17T03:12:08;14.05;;;4.25;;
75437;SDS011;64015;49.392;15.582;2024-03-17T03:14:33;8.40;;;3.83;;
75437;SDS011;64015;49.392;15.582;2024-03-17T03:17:02;9.73;;;4.18;;
75437;SDS011;64015;49.392;15.582;2024-03-17T03:19:27;9.98;;;4.00;;
75437;SDS011;64015;49.392;15.582;2024-03-17T03:21:53;8.15;;;3.67;;
75437;SDS011;64015;49.392;15.582;2024-03-17T03:27:42;7.25;;;3.72;;
75437;SDS011;64015;49.392;15.582;2024-03-17T03:30:08;13.20;;;3.78;;
75437;SDS011;64015;49.392;15.582;2024-03-17T03:32:35;8.73;;;3.63;;
75437;SDS011;64015;49.392;15.582;2024-03-17T03:37:44;13.98;;;4.07;;
75437;SDS011;64015;49.392;15.582;2024-03-17T03:40:10;16.15;;;3.92;;
75437;SDS011;64015;49.392;15.582;2024-03-17T03:42:42;9.57;;;3.42;;
75437;SDS011;64015;49.392;15.582;2024-03-17T03:45:09;9.30;;;3.72;;
75437;SDS011;64015;49.392;15.582;2024-03-17T03:47:38;8.65;;;3.55;;
75437;SDS011;64015;49.392;15.582;2024-03-17T03:50:08;9.00;;;3.78;;
75437;SDS011;64015;49.392;15.582;2024-03-17T03:52:38;8.35;;;3.83;;
75437;SDS011;64015;49.392;15.582;2024-03-17T03:55:06;7.78;;;4.55;;
75437;SDS011;64015;49.392;15.582;2024-03-17T03:57:38;8.93;;;3.05;;
75437;SDS011;64015;49.392;15.582;2024-03-17T04:00:06;11.63;;;4.43;;
75437;SDS011;64015;49.392;15.582;2024-03-17T04:02:44;9.25;;;3.88;;
75437;SDS011;64015;49.392;15.582;2024-03-17T04:05:10;8.80;;;3.40;;
75437;SDS011;64015;49.392;15.582;2024-03-17T04:07:38;7.38;;;4.03;;
75437;SDS011;64015;49.392;15.582;2024-03-17T04:10:05;6.68;;;2.80;;
75437;SDS011;64015;49.392;15.582;2024-03-17T04:12:32;6.90;;;3.17;;
75437;SDS011;64015;49.392;15.582;2024-03-17T04:14:58;9.52;;;3.40;;
75437;SDS011;64015;49.392;15.582;2024-03-17T04:17:24;9.20;;;3.88;;
75437;SDS011;64015;49.392;15.582;2024-03-17T04:19:52;9.38;;;3.10;;
75437;SDS011;64015;49.392;15.582;2024-03-17T04:22:18;11.07;;;4.22;;
75437;SDS011;64015;49.392;15.582;2024-03-17T04:24:45;12.10;;;3.75;;
75437;SDS011;64015;49.392;15.582;2024-03-17T04:27:12;10.35;;;4.28;;
75437;SDS011;64015;49.392;15.582;2024-03-17T04:29:39;9.65;;;3.55;;
75437;SDS011;64015;49.392;15.582;2024-03-17T04:32:05;7.60;;;3.42;;
75437;SDS011;64015;49.392;15.582;2024-03-17T04:34:32;10.13;;;3.75;;
75437;SDS011;64015;49.392;15.582;2024-03-17T04:36:58;11.77;;;3.72;;
75437;SDS011;64015;49.392;15.582;2024-03-17T04:39:24;9.02;;;3.53;;
75437;SDS011;64015;49.392;15.582;2024-03-17T04:41:50;8.88;;;3.72;;
75437;SDS011;64015;49.392;15.582;2024-03-17T04:44:17;7.47;;;3.35;;
75437;SDS011;64015;49.392;15.582;2024-03-17T04:46:43;11.70;;;4.40;;
75437;SDS011;64015;49.392;15.582;2024-03-17T04:49:17;12.05;;;3.13;;
75437;SDS011;64015;49.392;15.582;2024-03-17T04:51:43;11.77;;;3.85;;
75437;SDS011;64015;49.392;15.582;2024-03-17T04:54:10;9.07;;;3.88;;
75437;SDS011;64015;49.392;15.582;2024-03-17T04:56:35;10.02;;;3.22;;
75437;SDS011;64015;49.392;15.582;2024-03-17T04:59:01;7.13;;;3.00;;
75437;SDS011;64015;49.392;15.582;2024-03-17T05:01:26;9.10;;;3.22;;
75437;SDS011;64015;49.392;15.582;2024-03-17T05:03:52;8.23;;;3.47;;
75437;SDS011;64015;49.392;15.582;2024-03-17T05:06:18;8.43;;;2.95;;
75437;SDS011;64015;49.392;15.582;2024-03-17T05:08:44;9.32;;;3.60;;
75437;SDS011;64015;49.392;15.582;2024-03-17T05:11:10;8.35;;;4.13;;
75437;SDS011;64015;49.392;15.582;2024-03-17T05:13:37;9.50;;;3.83;;
75437;SDS011;64015;49.392;15.582;2024-03-17T05:16:03;10.48;;;3.35;;
75437;SDS011;64015;49.392;15.582;2024-03-17T05:18:30;9.18;;;3.22;;
75437;SDS011;64015;49.392;15.582;2024-03-17T05:21:04;12.18;;;3.90;;
75437;SDS011;64015;49.392;15.582;2024-03-17T05:23:31;9.68;;;3.70;;
75437;SDS011;64015;49.392;15.582;2024-03-17T05:25:58;8.63;;;3.55;;
75437;SDS011;64015;49.392;15.582;2024-03-17T05:28:25;11.70;;;4.03;;
75437;SDS011;64015;49.392;15.582;2024-03-17T05:30:53;9.38;;;3.88;;
75437;SDS011;64015;49.392;15.582;2024-03-17T05:33:19;10.10;;;3.80;;
75437;SDS011;64015;49.392;15.582;2024-03-17T05:35:50;9.98;;;3.75;;
75437;SDS011;64015;49.392;15.582;2024-03-17T05:38:18;8.40;;;3.47;;
75437;SDS011;64015;49.392;15.582;2024-03-17T05:40:57;9.23;;;4.15;;
75437;SDS011;64015;49.392;15.582;2024-03-17T05:43:30;8.02;;;3.08;;
75437;SDS011;64015;49.392;15.582;2024-03-17T05:46:06;7.80;;;3.38;;
75437;SDS011;64015;49.392;15.582;2024-03-17T05:51:02;6.25;;;2.60;;
75437;SDS011;64015;49.392;15.582;2024-03-17T05:53:28;6.47;;;2.78;;
75437;SDS011;64015;49.392;15.582;2024-03-17T05:56:00;9.70;;;3.85;;
75437;SDS011;64015;49.392;15.582;2024-03-17T05:58:27;8.10;;;3.38;;
75437;SDS011;64015;49.392;15.582;2024-03-17T06:00:52;7.85;;;3.28;;
75437;SDS011;64015;49.392;15.582;2024-03-17T06:03:18;9.15;;;3.85;;
75437;SDS011;64015;49.392;15.582;2024-03-17T06:05:44;6.70;;;3.65;;
75437;SDS011;64015;49.392;15.582;2024-03-17T06:08:13;10.35;;;3.95;;
75437;SDS011;64015;49.392;15.582;2024-03-17T06:13:12;8.18;;;3.88;;
75437;SDS011;64015;49.392;15.582;2024-03-17T06:15:40;8.13;;;2.95;;
75437;SDS011;64015;49.392;15.582;2024-03-17T06:18:06;9.65;;;2.78;;
75437;SDS011;64015;49.392;15.582;2024-03-17T06:20:39;5.80;;;2.67;;
75437;SDS011;64015;49.392;15.582;2024-03-17T06:23:07;10.02;;;2.90;;
75437;SDS011;64015;49.392;15.582;2024-03-17T06:28:06;9.65;;;2.55;;
75437;SDS011;64015;49.392;15.582;2024-03-17T06:30:31;8.30;;;2.55;;
75437;SDS011;64015;49.392;15.582;2024-03-17T06:32:58;5.78;;;2.10;;
75437;SDS011;64015;49.392;15.582;2024-03-17T06:35:23;5.28;;;2.05;;
75437;SDS011;64015;49.392;15.582;2024-03-17T06:37:52;5.95;;;2.10;;
75437;SDS011;64015;49.392;15.582;2024-03-17T06:40:18;4.60;;;2.13;;
75437;SDS011;64015;49.392;15.582;2024-03-17T06:42:44;5.97;;;2.78;;
75437;SDS011;64015;49.392;15.582;2024-03-17T06:45:09;5.57;;;2.17;;
75437;SDS011;64015;49.392;15.582;2024-03-17T06:47:36;5.10;;;1.77;;
75437;SDS011;64015;49.392;15.582;2024-03-17T06:50:03;5.65;;;2.08;;
75437;SDS011;64015;49.392;15.582;2024-03-17T06:52:29;3.85;;;2.05;;
75437;SDS011;64015;49.392;15.582;2024-03-17T06:54:56;4.47;;;2.15;;
75437;SDS011;64015;49.392;15.582;2024-03-17T06:57:23;6.55;;;2.30;;
75437;SDS011;64015;49.392;15.582;2024-03-17T06:59:49;4.50;;;1.77;;
75437;SDS011;64015;49.392;15.582;2024-03-17T07:02:16;5.53;;;2.13;;
75437;SDS011;64015;49.392;15.582;2024-03-17T07:07:25;7.95;;;1.98;;
75437;SDS011;64015;49.392;15.582;2024-03-17T07:09:52;7.28;;;2.63;;
75437;SDS011;64015;49.392;15.582;2024-03-17T07:12:17;7.22;;;2.00;;
75437;SDS011;64015;49.392;15.582;2024-03-17T07:14:44;3.65;;;1.80;;
75437;SDS011;64015;49.392;15.582;2024-03-17T07:17:10;3.70;;;1.95;;
75437;SDS011;64015;49.392;15.582;2024-03-17T07:19:35;5.35;;;1.92;;
75437;SDS011;64015;49.392;15.582;2024-03-17T07:22:01;6.22;;;2.50;;
75437;SDS011;64015;49.392;15.582;2024-03-17T07:24:29;4.68;;;2.22;;
75437;SDS011;64015;49.392;15.582;2024-03-17T07:26:55;5.50;;;2.10;;
75437;SDS011;64015;49.392;15.582;2024-03-17T07:29:21;5.32;;;2.20;;
75437;SDS011;64015;49.392;15.582;2024-03-17T07:31:47;5.28;;;2.03;;
75437;SDS011;64015;49.392;15.582;2024-03-17T07:34:13;5.88;;;2.25;;
75437;SDS011;64015;49.392;15.582;2024-03-17T07:36:39;4.00;;;1.98;;
75437;SDS011;64015;49.392;15.582;2024-03-17T07:39:05;5.50;;;2.00;;
75437;SDS011;64015;49.392;15.582;2024-03-17T07:41:32;6.60;;;2.47;;
75437;SDS011;64015;49.392;15.582;2024-03-17T07:43:58;5.63;;;2.28;;
75437;SDS011;64015;49.392;15.582;2024-03-17T07:46:24;6.15;;;2.10;;
75437;SDS011;64015;49.392;15.582;2024-03-17T07:48:49;7.00;;;2.47;;
75437;SDS011;64015;49.392;15.582;2024-03-17T07:51:16;7.10;;;2.40;;
75437;SDS011;64015;49.392;15.582;2024-03-17T07:53:43;5.82;;;2.72;;
75437;SDS011;64015;49.392;15.582;2024-03-17T07:56:11;6.35;;;2.20;;
75437;SDS011;64015;49.392;15.582;2024-03-17T08:01:05;8.38;;;2.97;;
75437;SDS011;64015;49.392;15.582;2024-03-17T08:03:33;6.15;;;2.90;;
75437;SDS011;64015;49.392;15.582;2024-03-17T08:08:26;8.63;;;3.20;;
75437;SDS011;64015;49.392;15.582;2024-03-17T08:10:52;7.10;;;3.17;;
75437;SDS011;64015;49.392;15.582;2024-03-17T08:13:19;5.78;;;2.97;;
75437;SDS011;64015;49.392;15.582;2024-03-17T08:16:05;6.13;;;2.50;;
75437;SDS011;64015;49.392;15.582;2024-03-17T08:20:59;7.45;;;3.25;;
75437;SDS011;64015;49.392;15.582;2024-03-17T08:23:25;5.47;;;2.78;;
75437;SDS011;64015;49.392;15.582;2024-03-17T08:25:55;5.55;;;2.95;;
75437;SDS011;64015;49.392;15.582;2024-03-17T08:28:22;5.50;;;2.42;;
75437;SDS011;64015;49.392;15.582;2024-03-17T08:30:52;8.25;;;3.25;;
75437;SDS011;64015;49.392;15.582;2024-03-17T08:33:21;8.40;;;2.72;;
75437;SDS011;64015;49.392;15.582;2024-03-17T08:35:52;4.07;;;2.17;;
75437;SDS011;64015;49.392;15.582;2024-03-17T08:38:21;4.70;;;2.60;;
75437;SDS011;64015;49.392;15.582;2024-03-17T08:40:51;4.88;;;2.00;;
75437;SDS011;64015;49.392;15.582;2024-03-17T08:43:18;8.50;;;3.55;;
75437;SDS011;64015;49.392;15.582;2024-03-17T08:45:45;6.43;;;2.40;;
75437;SDS011;64015;49.392;15.582;2024-03-17T08:48:10;6.47;;;2.30;;
75437;SDS011;64015;49.392;15.582;2024-03-17T08:50:36;6.85;;;2.50;;
75437;SDS011;64015;49.392;15.582;2024-03-17T08:53:02;4.28;;;2.20;;
75437;SDS011;64015;49.392;15.582;2024-03-17T08:55:29;4.90;;;1.90;;
75437;SDS011;64015;49.392;15.582;2024-03-17T08:57:54;4.72;;;1.92;;
75437;SDS011;64015;49.392;15.582;2024-03-17T09:00:20;5.25;;;2.22;;
75437;SDS011;64015;49.392;15.582;2024-03-17T09:02:46;7.15;;;2.25;;
75437;SDS011;64015;49.392;15.582;2024-03-17T09:05:12;5.75;;;2.20;;
75437;SDS011;64015;49.392;15.582;2024-03-17T09:07:38;7.00;;;2.50;;
75437;SDS011;64015;49.392;15.582;2024-03-17T09:10:05;7.13;;;2.42;;
75437;SDS011;64015;49.392;15.582;2024-03-17T09:12:31;5.68;;;2.15;;
75437;SDS011;64015;49.392;15.582;2024-03-17T09:14:57;6.53;;;1.85;;
75437;SDS011;64015;49.392;15.582;2024-03-17T09:17:23;4.70;;;1.90;;
75437;SDS011;64015;49.392;15.582;2024-03-17T09:19:49;4.25;;;1.98;;
75437;SDS011;64015;49.392;15.582;2024-03-17T09:22:15;3.28;;;1.83;;
75437;SDS011;64015;49.392;15.582;2024-03-17T09:24:41;3.20;;;1.85;;
75437;SDS011;64015;49.392;15.582;2024-03-17T09:27:06;4.18;;;2.00;;
75437;SDS011;64015;49.392;15.582;2024-03-17T09:29:32;5.85;;;2.65;;
75437;SDS011;64015;49.392;15.582;2024-03-17T09:31:58;5.18;;;2.35;;
75437;SDS011;64015;49.392;15.582;2024-03-17T09:34:25;4.20;;;2.08;;
75437;SDS011;64015;49.392;15.582;2024-03-17T09:36:50;3.60;;;2.25;;
75437;SDS011;64015;49.392;15.582;2024-03-17T09:39:16;6.63;;;2.60;;
75437;SDS011;64015;49.392;15.582;2024-03-17T09:41:45;5.43;;;2.50;;
75437;SDS011;64015;49.392;15.582;2024-03-17T09:44:12;5.95;;;2.33;;
75437;SDS011;64015;49.392;15.582;2024-03-17T09:46:41;4.82;;;2.35;;
75437;SDS011;64015;49.392;15.582;2024-03-17T09:49:14;8.18;;;2.30;;
75437;SDS011;64015;49.392;15.582;2024-03-17T09:51:40;3.63;;;1.88;;
75437;SDS011;64015;49.392;15.582;2024-03-17T09:54:16;4.45;;;1.92;;
75437;SDS011;64015;49.392;15.582;2024-03-17T09:56:44;4.80;;;1.90;;
75437;SDS011;64015;49.392;15.582;2024-03-17T09:59:10;3.20;;;1.80;;
75437;SDS011;64015;49.392;15.582;2024-03-17T10:01:35;5.35;;;2.25;;
75437;SDS011;64015;49.392;15.582;2024-03-17T10:04:01;4.47;;;2.65;;
75437;SDS011;64015;49.392;15.582;2024-03-17T10:06:29;5.40;;;2.00;;
75437;SDS011;64015;49.392;15.582;2024-03-17T10:08:57;5.70;;;2.10;;
75437;SDS011;64015;49.392;15.582;2024-03-17T10:11:24;4.93;;;1.85;;
75437;SDS011;64015;49.392;15.582;2024-03-17T10:14:04;5.03;;;2.17;;
75437;SDS011;64015;49.392;15.582;2024-03-17T10:16:32;5.18;;;1.80;;
75437;SDS011;64015;49.392;15.582;2024-03-17T10:19:08;5.40;;;1.80;;
75437;SDS011;64015;49.392;15.582;2024-03-17T10:21:36;4.40;;;1.70;;
75437;SDS011;64015;49.392;15.582;2024-03-17T10:24:06;4.85;;;2.13;;
75437;SDS011;64015;49.392;15.582;2024-03-17T10:26:37;5.97;;;2.40;;
75437;SDS011;64015;49.392;15.582;2024-03-17T10:29:15;6.63;;;1.88;;
75437;SDS011;64015;49.392;15.582;2024-03-17T10:31:47;4.30;;;1.90;;
75437;SDS011;64015;49.392;15.582;2024-03-17T10:34:14;7.22;;;2.30;;
75437;SDS011;64015;49.392;15.582;2024-03-17T10:36:47;3.70;;;2.13;;
75437;SDS011;64015;49.392;15.582;2024-03-17T10:39:23;4.60;;;2.25;;
75437;SDS011;64015;49.392;15.582;2024-03-17T10:41:57;5.75;;;2.08;;
75437;SDS011;64015;49.392;15.582;2024-03-17T10:44:25;5.78;;;2.35;;
75437;SDS011;64015;49.392;15.582;2024-03-17T10:47:00;5.47;;;2.20;;
75437;SDS011;64015;49.392;15.582;2024-03-17T10:49:31;5.13;;;2.17;;
75437;SDS011;64015;49.392;15.582;2024-03-17T10:51:59;5.20;;;2.22;;
75437;SDS011;64015;49.392;15.582;2024-03-17T10:54:28;4.45;;;1.80;;
75437;SDS011;64015;49.392;15.582;2024-03-17T10:56:57;4.20;;;1.50;;
75437;SDS011;64015;49.392;15.582;2024-03-17T10:59:47;3.75;;;1.85;;
75437;SDS011;64015;49.392;15.582;2024-03-17T11:02:20;3.03;;;1.55;;
75437;SDS011;64015;49.392;15.582;2024-03-17T11:04:54;5.25;;;2.33;;
75437;SDS011;64015;49.392;15.582;2024-03-17T11:07:21;4.53;;;1.77;;
75437;SDS011;64015;49.392;15.582;2024-03-17T11:09:48;4.18;;;2.05;;
75437;SDS011;64015;49.392;15.582;2024-03-17T11:17:51;4.28;;;1.55;;
75437;SDS011;64015;49.392;15.582;2024-03-17T11:20:25;3.88;;;2.08;;
75437;SDS011;64015;49.392;15.582;2024-03-17T11:22:53;5.32;;;2.00;;
75437;SDS011;64015;49.392;15.582;2024-03-17T11:27:51;4.60;;;1.85;;
75437;SDS011;64015;49.392;15.582;2024-03-17T11:38:53;3.38;;;1.70;;
75437;SDS011;64015;49.392;15.582;2024-03-17T11:46:39;7.43;;;1.95;;
75437;SDS011;64015;49.392;15.582;2024-03-17T11:49:05;6.25;;;2.33;;
75437;SDS011;64015;49.392;15.582;2024-03-17T11:51:34;4.45;;;1.70;;
75437;SDS011;64015;49.392;15.582;2024-03-17T11:54:00;4.68;;;1.60;;
75437;SDS011;64015;49.392;15.582;2024-03-17T11:56:26;4.15;;;2.10;;
75437;SDS011;64015;49.392;15.582;2024-03-17T11:59:05;4.60;;;1.90;;
75437;SDS011;64015;49.392;15.582;2024-03-17T12:01:34;4.80;;;1.70;;
75437;SDS011;64015;49.392;15.582;2024-03-17T12:04:01;6.18;;;2.05;;
75437;SDS011;64015;49.392;15.582;2024-03-17T12:06:31;4.38;;;1.83;;
75437;SDS011;64015;49.392;15.582;2024-03-17T12:09:40;7.13;;;2.10;;
75437;SDS011;64015;49.392;15.582;2024-03-17T12:11:50;4.50;;;1.80;;
75437;SDS011;64015;49.392;15.582;2024-03-17T12:14:17;6.15;;;1.90;;
75437;SDS011;64015;49.392;15.582;2024-03-17T12:16:51;4.05;;;2.03;;
75437;SDS011;64015;49.392;15.582;2024-03-17T12:19:27;5.22;;;2.03;;
75437;SDS011;64015;49.392;15.582;2024-03-17T12:21:55;4.35;;;2.20;;
75437;SDS011;64015;49.392;15.582;2024-03-17T12:24:22;3.88;;;1.75;;
75437;SDS011;64015;49.392;15.582;2024-03-17T12:26:52;6.13;;;1.92;;
75437;SDS011;64015;49.392;15.582;2024-03-17T12:31:54;7.28;;;2.25;;
75437;SDS011;64015;49.392;15.582;2024-03-17T12:34:21;3.47;;;1.90;;
75437;SDS011;64015;49.392;15.582;2024-03-17T12:36:48;3.97;;;2.00;;
75437;SDS011;64015;49.392;15.582;2024-03-17T12:44:48;5.05;;;1.67;;
75437;SDS011;64015;49.392;15.582;2024-03-17T12:47:28;4.00;;;1.85;;
75437;SDS011;64015;49.392;15.582;2024-03-17T12:49:58;5.05;;;2.38;;
75437;SDS011;64015;49.392;15.582;2024-03-17T12:52:29;3.80;;;2.10;;
75437;SDS011;64015;49.392;15.582;2024-03-17T12:54:59;2.83;;;1.50;;
75437;SDS011;64015;49.392;15.582;2024-03-17T12:57:44;2.63;;;1.35;;
75437;SDS011;64015;49.392;15.582;2024-03-17T13:00:29;3.58;;;1.80;;
75437;SDS011;64015;49.392;15.582;2024-03-17T13:03:03;4.82;;;1.83;;
75437;SDS011;64015;49.392;15.582;2024-03-17T13:05:30;3.55;;;1.70;;
75437;SDS011;64015;49.392;15.582;2024-03-17T13:07:57;3.75;;;1.73;;
75437;SDS011;64015;49.392;15.582;2024-03-17T13:10:27;4.38;;;1.42;;
75437;SDS011;64015;49.392;15.582;2024-03-17T13:13:00;4.95;;;1.60;;
75437;SDS011;64015;49.392;15.582;2024-03-17T13:15:30;3.25;;;1.45;;
75437;SDS011;64015;49.392;15.582;2024-03-17T13:17:59;5.53;;;1.75;;
75437;SDS011;64015;49.392;15.582;2024-03-17T13:20:25;5.15;;;1.40;;
75437;SDS011;64015;49.392;15.582;2024-03-17T13:22:51;3.58;;;1.45;;
75437;SDS011;64015;49.392;15.582;2024-03-17T13:25:19;3.22;;;1.95;;
75437;SDS011;64015;49.392;15.582;2024-03-17T13:27:48;3.13;;;1.60;;
75437;SDS011;64015;49.392;15.582;2024-03-17T13:30:15;3.17;;;1.40;;
75437;SDS011;64015;49.392;15.582;2024-03-17T13:32:43;4.35;;;1.95;;
75437;SDS011;64015;49.392;15.582;2024-03-17T13:35:16;5.20;;;1.95;;
75437;SDS011;64015;49.392;15.582;2024-03-17T13:37:45;5.28;;;1.70;;
75437;SDS011;64015;49.392;15.582;2024-03-17T13:40:13;5.75;;;2.22;;
75437;SDS011;64015;49.392;15.582;2024-03-17T13:42:42;4.90;;;1.85;;
75437;SDS011;64015;49.392;15.582;2024-03-17T13:45:12;5.28;;;1.55;;
75437;SDS011;64015;49.392;15.582;2024-03-17T13:47:39;5.05;;;2.00;;
75437;SDS011;64015;49.392;15.582;2024-03-17T13:50:06;4.40;;;1.65;;
75437;SDS011;64015;49.392;15.582;2024-03-17T13:52:39;2.83;;;1.50;;
75437;SDS011;64015;49.392;15.582;2024-03-17T13:55:06;3.28;;;1.60;;
75437;SDS011;64015;49.392;15.582;2024-03-17T13:57:37;6.20;;;2.00;;
75437;SDS011;64015;49.392;15.582;2024-03-17T14:00:03;4.72;;;1.83;;
75437;SDS011;64015;49.392;15.582;2024-03-17T14:02:33;3.65;;;1.70;;
75437;SDS011;64015;49.392;15.582;2024-03-17T14:04:58;4.43;;;1.15;;
75437;SDS011;64015;49.392;15.582;2024-03-17T14:07:25;2.97;;;1.23;;
75437;SDS011;64015;49.392;15.582;2024-03-17T14:09:51;4.40;;;2.40;;
75437;SDS011;64015;49.392;15.582;2024-03-17T14:12:17;5.30;;;2.28;;
75437;SDS011;64015;49.392;15.582;2024-03-17T14:14:43;12.18;;;3.75;;
75437;SDS011;64015;49.392;15.582;2024-03-17T14:17:09;5.18;;;2.13;;
75437;SDS011;64015;49.392;15.582;2024-03-17T14:19:35;2.97;;;1.23;;
75437;SDS011;64015;49.392;15.582;2024-03-17T14:22:01;4.85;;;1.75;;
75437;SDS011;64015;49.392;15.582;2024-03-17T14:24:26;3.13;;;1.30;;
75437;SDS011;64015;49.392;15.582;2024-03-17T14:26:54;3.65;;;1.50;;
75437;SDS011;64015;49.392;15.582;2024-03-17T14:29:19;3.20;;;1.45;;
75437;SDS011;64015;49.392;15.582;2024-03-17T14:31:45;3.95;;;1.40;;
75437;SDS011;64015;49.392;15.582;2024-03-17T14:34:11;4.15;;;1.60;;
75437;SDS011;64015;49.392;15.582;2024-03-17T14:36:37;3.00;;;1.42;;
75437;SDS011;64015;49.392;15.582;2024-03-17T14:39:03;2.85;;;1.42;;
75437;SDS011;64015;49.392;15.582;2024-03-17T14:41:29;6.57;;;2.10;;
75437;SDS011;64015;49.392;15.582;2024-03-17T14:43:56;6.00;;;2.92;;
75437;SDS011;64015;49.392;15.582;2024-03-17T14:46:26;4.07;;;1.85;;
75437;SDS011;64015;49.392;15.582;2024-03-17T14:48:52;5.95;;;2.00;;
75437;SDS011;64015;49.392;15.582;2024-03-17T14:51:19;7.70;;;2.05;;
75437;SDS011;64015;49.392;15.582;2024-03-17T14:53:48;4.55;;;1.75;;
75437;SDS011;64015;49.392;15.582;2024-03-17T14:56:15;6.40;;;2.75;;
75437;SDS011;64015;49.392;15.582;2024-03-17T14:58:43;5.97;;;3.15;;
75437;SDS011;64015;49.392;15.582;2024-03-17T15:01:09;3.67;;;1.88;;
75437;SDS011;64015;49.392;15.582;2024-03-17T15:03:35;6.00;;;2.80;;
75437;SDS011;64015;49.392;15.582;2024-03-17T15:06:02;7.00;;;2.97;;
75437;SDS011;64015;49.392;15.582;2024-03-17T15:08:30;5.45;;;2.83;;
75437;SDS011;64015;49.392;15.582;2024-03-17T15:10:56;8.63;;;5.32;;
75437;SDS011;64015;49.392;15.582;2024-03-17T15:13:22;4.57;;;2.20;;
75437;SDS011;64015;49.392;15.582;2024-03-17T15:15:49;6.47;;;2.90;;
75437;SDS011;64015;49.392;15.582;2024-03-17T15:18:15;5.43;;;2.53;;
75437;SDS011;64015;49.392;15.582;2024-03-17T15:20:41;4.40;;;2.05;;
75437;SDS011;64015;49.392;15.582;2024-03-17T15:23:07;8.32;;;3.65;;
75437;SDS011;64015;49.392;15.582;2024-03-17T15:25:33;5.53;;;2.00;;
75437;SDS011;64015;49.392;15.582;2024-03-17T15:27:59;5.30;;;1.77;;
75437;SDS011;64015;49.392;15.582;2024-03-17T15:30:27;4.47;;;1.90;;
75437;SDS011;64015;49.392;15.582;2024-03-17T15:32:54;5.05;;;1.83;;
75437;SDS011;64015;49.392;15.582;2024-03-17T15:35:21;5.25;;;1.90;;